Hlavní strana
METAR-TAF:

METAR-TAF

Letiště :

Čita, Rusko

zeměpisná šířka: 52-05N, zeměpisná délka: 113-29E, výška: 685 m

Aktuální stav počasí

Zpráva byla vytvořena před 25 minutami, v 16:00 UTC
Západní vítr 4 kt
Teplota 2°C
Vlhkost vzduchu 75%
Tlak 1016 hPa
Viditelnost 10 km a více

METAR: UIAA 251600Z 27002MPS 9999 NSC 02/M02 Q1016 R29/CLRD70 NOSIG RMK QFE703/0938

Čas: 01:25 (16:25 UTC)

Předpověď počasí

Zpráva byla vytvořena před 2 hodinami a 25 minutami, v 14:00 UTC
Předpověď platná od 25 v 15 UTC do 26 v 15 UTC
Východoseverovýchodní vítr 6 kt s nárazy do 17 kt
Viditelnost 10 km a více
Dočasný
od 26 v 00 UTC do 26 v 03 UTC
Východojihovýchodní vítr 6 kt s nárazy do 16 kt

TAF: UIAA 251400Z 2515/2615 06003G09MPS 9999 NSC TEMPO 2600/2603 12003G08MPS

Stav a předpovědi počasí z více než 4 000 letišť (zprávy METAR a TAF).

Červené a žluté tečky na mapě představují dostupné meteorologické stanice.

Když kurzor umístíte na tečku, zobrazí se název stanice.

Pak kliknutím zobrazíte stav a předpověď počasí.

Chcete-li změnit mapu, kliknutím na zelené tlačítko se znaménkem +mapu přiblížíte, kliknutím na zelené tlačítko se znaménkem – mapu oddálíte a kliknutím na zelené šipky přejdete na sousední mapy.


METAR-TAF: